sensor_id;sensor_type;location;lat;lon;timestamp;pressure;altitude;pressure_sealevel;temperature;humidity
5380;BME280;2713;42.680;23.310;2023-07-20T00:01:30;94726.59;;;27.54;49.80
5380;BME280;2713;42.680;23.310;2023-07-20T00:03:56;94719.59;;;27.58;50.04
5380;BME280;2713;42.680;23.310;2023-07-20T00:06:24;94729.69;;;27.61;50.27
5380;BME280;2713;42.680;23.310;2023-07-20T00:08:53;94720.88;;;27.60;51.00
5380;BME280;2713;42.680;23.310;2023-07-20T00:11:21;94715.38;;;27.19;52.04
5380;BME280;2713;42.680;23.310;2023-07-20T00:13:48;94724.50;;;27.18;52.07
5380;BME280;2713;42.680;23.310;2023-07-20T00:16:15;94727.88;;;27.24;52.03
5380;BME280;2713;42.680;23.310;2023-07-20T00:18:41;94732.44;;;27.37;50.90
5380;BME280;2713;42.680;23.310;2023-07-20T00:21:08;94731.03;;;27.45;49.89
5380;BME280;2713;42.680;23.310;2023-07-20T00:23:36;94737.78;;;27.37;49.92
5380;BME280;2713;42.680;23.310;2023-07-20T00:26:02;94743.81;;;27.29;49.96
5380;BME280;2713;42.680;23.310;2023-07-20T00:28:30;94737.69;;;27.10;50.20
5380;BME280;2713;42.680;23.310;2023-07-20T00:30:59;94728.59;;;27.11;50.06
5380;BME280;2713;42.680;23.310;2023-07-20T00:33:26;94742.28;;;27.23;50.57
5380;BME280;2713;42.680;23.310;2023-07-20T00:35:53;94743.50;;;27.31;49.67
5380;BME280;2713;42.680;23.310;2023-07-20T00:38:20;94741.72;;;27.26;48.60
5380;BME280;2713;42.680;23.310;2023-07-20T00:40:47;94734.38;;;27.18;48.16
5380;BME280;2713;42.680;23.310;2023-07-20T00:43:15;94731.19;;;27.16;48.72
5380;BME280;2713;42.680;23.310;2023-07-20T00:45:43;94732.19;;;27.20;48.41
5380;BME280;2713;42.680;23.310;2023-07-20T00:48:10;94724.91;;;27.26;48.25
5380;BME280;2713;42.680;23.310;2023-07-20T00:50:39;94725.25;;;27.05;49.26
5380;BME280;2713;42.680;23.310;2023-07-20T00:53:08;94730.63;;;27.19;49.37
5380;BME280;2713;42.680;23.310;2023-07-20T00:55:35;94723.13;;;27.21;50.16
5380;BME280;2713;42.680;23.310;2023-07-20T00:58:02;94716.75;;;27.17;50.60
5380;BME280;2713;42.680;23.310;2023-07-20T01:00:29;94716.69;;;27.22;50.79
5380;BME280;2713;42.680;23.310;2023-07-20T01:02:58;94716.34;;;27.10;51.37
5380;BME280;2713;42.680;23.310;2023-07-20T01:05:35;94711.00;;;27.10;51.37
5380;BME280;2713;42.680;23.310;2023-07-20T01:08:09;94717.34;;;27.14;51.50
5380;BME280;2713;42.680;23.310;2023-07-20T01:10:40;94725.94;;;27.11;51.96
5380;BME280;2713;42.680;23.310;2023-07-20T01:13:09;94725.72;;;27.07;52.00
5380;BME280;2713;42.680;23.310;2023-07-20T01:15:38;94729.69;;;27.10;52.12
5380;BME280;2713;42.680;23.310;2023-07-20T01:18:06;94726.59;;;27.03;52.81
5380;BME280;2713;42.680;23.310;2023-07-20T01:20:33;94717.81;;;26.84;53.88
5380;BME280;2713;42.680;23.310;2023-07-20T01:23:19;94716.88;;;26.93;53.66
5380;BME280;2713;42.680;23.310;2023-07-20T01:26:02;94725.97;;;26.68;54.45
5380;BME280;2713;42.680;23.310;2023-07-20T01:28:52;94732.50;;;26.39;55.40
5380;BME280;2713;42.680;23.310;2023-07-20T01:34:02;94734.81;;;26.27;55.84
5380;BME280;2713;42.680;23.310;2023-07-20T01:36:34;94729.81;;;26.44;54.92
5380;BME280;2713;42.680;23.310;2023-07-20T01:39:02;94724.69;;;26.47;54.90
5380;BME280;2713;42.680;23.310;2023-07-20T01:41:31;94728.56;;;26.55;55.14
5380;BME280;2713;42.680;23.310;2023-07-20T01:43:58;94727.34;;;26.47;55.25
5380;BME280;2713;42.680;23.310;2023-07-20T01:46:25;94728.94;;;26.01;56.53
5380;BME280;2713;42.680;23.310;2023-07-20T01:48:54;94725.94;;;26.07;56.31
5380;BME280;2713;42.680;23.310;2023-07-20T01:51:22;94721.25;;;25.99;56.83
5380;BME280;2713;42.680;23.310;2023-07-20T01:53:49;94723.00;;;26.09;56.52
5380;BME280;2713;42.680;23.310;2023-07-20T01:56:16;94709.78;;;25.99;56.33
5380;BME280;2713;42.680;23.310;2023-07-20T01:58:46;94723.84;;;26.04;56.46
5380;BME280;2713;42.680;23.310;2023-07-20T02:01:13;94724.22;;;25.93;56.36
5380;BME280;2713;42.680;23.310;2023-07-20T02:03:40;94726.00;;;25.79;57.11
5380;BME280;2713;42.680;23.310;2023-07-20T02:06:06;94721.28;;;25.70;57.05
5380;BME280;2713;42.680;23.310;2023-07-20T02:08:35;94721.13;;;25.86;56.51
5380;BME280;2713;42.680;23.310;2023-07-20T02:11:01;94712.78;;;25.92;56.62
5380;BME280;2713;42.680;23.310;2023-07-20T02:13:30;94714.25;;;26.03;55.95
5380;BME280;2713;42.680;23.310;2023-07-20T02:15:57;94703.81;;;26.07;56.25
5380;BME280;2713;42.680;23.310;2023-07-20T02:18:23;94713.06;;;26.14;56.26
5380;BME280;2713;42.680;23.310;2023-07-20T02:20:52;94720.31;;;26.09;56.03
5380;BME280;2713;42.680;23.310;2023-07-20T02:23:19;94701.22;;;26.02;56.17
5380;BME280;2713;42.680;23.310;2023-07-20T02:25:47;94720.72;;;26.21;55.75
5380;BME280;2713;42.680;23.310;2023-07-20T02:28:14;94713.50;;;26.27;56.04
5380;BME280;2713;42.680;23.310;2023-07-20T02:30:41;94716.88;;;26.32;55.87
5380;BME280;2713;42.680;23.310;2023-07-20T02:33:08;94714.34;;;26.22;55.99
5380;BME280;2713;42.680;23.310;2023-07-20T02:35:35;94714.38;;;26.17;56.29
5380;BME280;2713;42.680;23.310;2023-07-20T02:38:01;94699.06;;;26.28;55.32
5380;BME280;2713;42.680;23.310;2023-07-20T02:40:28;94706.38;;;26.17;57.01
5380;BME280;2713;42.680;23.310;2023-07-20T02:42:56;94699.25;;;26.12;57.36
5380;BME280;2713;42.680;23.310;2023-07-20T02:45:23;94695.47;;;26.13;57.47
5380;BME280;2713;42.680;23.310;2023-07-20T02:47:50;94690.94;;;26.19;57.44
5380;BME280;2713;42.680;23.310;2023-07-20T02:50:17;94691.47;;;26.16;57.83
5380;BME280;2713;42.680;23.310;2023-07-20T02:52:44;94686.88;;;25.98;58.46
5380;BME280;2713;42.680;23.310;2023-07-20T02:55:11;94681.47;;;26.03;57.76
5380;BME280;2713;42.680;23.310;2023-07-20T02:57:38;94692.13;;;26.03;58.23
5380;BME280;2713;42.680;23.310;2023-07-20T03:00:07;94695.19;;;26.15;58.04
5380;BME280;2713;42.680;23.310;2023-07-20T03:02:34;94693.59;;;26.19;57.57
5380;BME280;2713;42.680;23.310;2023-07-20T03:05:01;94673.56;;;25.98;57.24
5380;BME280;2713;42.680;23.310;2023-07-20T03:07:31;94688.19;;;26.00;57.80
5380;BME280;2713;42.680;23.310;2023-07-20T03:09:58;94692.38;;;25.83;57.71
5380;BME280;2713;42.680;23.310;2023-07-20T03:12:25;94691.91;;;25.76;57.96
5380;BME280;2713;42.680;23.310;2023-07-20T03:14:52;94689.19;;;25.81;57.55
5380;BME280;2713;42.680;23.310;2023-07-20T03:17:21;94696.34;;;25.85;57.64
5380;BME280;2713;42.680;23.310;2023-07-20T03:19:47;94703.47;;;25.90;57.55
5380;BME280;2713;42.680;23.310;2023-07-20T03:22:14;94706.59;;;25.97;58.02
5380;BME280;2713;42.680;23.310;2023-07-20T03:24:41;94716.97;;;25.98;57.77
5380;BME280;2713;42.680;23.310;2023-07-20T03:27:08;94704.16;;;26.00;57.95
5380;BME280;2713;42.680;23.310;2023-07-20T03:29:35;94715.56;;;26.06;57.29
5380;BME280;2713;42.680;23.310;2023-07-20T03:32:02;94712.78;;;25.92;57.58
5380;BME280;2713;42.680;23.310;2023-07-20T03:34:30;94708.47;;;25.96;57.49
5380;BME280;2713;42.680;23.310;2023-07-20T03:36:57;94701.69;;;25.85;57.90
5380;BME280;2713;42.680;23.310;2023-07-20T03:39:26;94710.97;;;25.88;58.31
5380;BME280;2713;42.680;23.310;2023-07-20T03:41:54;94715.16;;;25.94;58.14
5380;BME280;2713;42.680;23.310;2023-07-20T03:44:20;94712.69;;;26.02;57.90
5380;BME280;2713;42.680;23.310;2023-07-20T03:46:47;94714.44;;;26.12;58.06
5380;BME280;2713;42.680;23.310;2023-07-20T03:49:14;94702.69;;;26.13;57.52
5380;BME280;2713;42.680;23.310;2023-07-20T03:51:42;94718.88;;;25.93;58.66
5380;BME280;2713;42.680;23.310;2023-07-20T03:54:09;94716.06;;;26.08;57.90
5380;BME280;2713;42.680;23.310;2023-07-20T03:56:36;94713.34;;;26.13;56.90
5380;BME280;2713;42.680;23.310;2023-07-20T03:59:03;94727.19;;;26.15;56.70
5380;BME280;2713;42.680;23.310;2023-07-20T04:01:29;94720.03;;;26.10;56.93
5380;BME280;2713;42.680;23.310;2023-07-20T04:04:06;94713.97;;;26.05;57.07
5380;BME280;2713;42.680;23.310;2023-07-20T04:06:33;94721.97;;;26.05;56.80
5380;BME280;2713;42.680;23.310;2023-07-20T04:09:03;94710.16;;;26.11;56.83
5380;BME280;2713;42.680;23.310;2023-07-20T04:11:31;94716.28;;;26.11;56.34
5380;BME280;2713;42.680;23.310;2023-07-20T04:13:58;94714.25;;;26.03;56.34
5380;BME280;2713;42.680;23.310;2023-07-20T04:16:24;94711.13;;;25.72;57.79
5380;BME280;2713;42.680;23.310;2023-07-20T04:18:51;94705.31;;;25.65;57.70
5380;BME280;2713;42.680;23.310;2023-07-20T04:21:18;94694.38;;;25.38;58.21
5380;BME280;2713;42.680;23.310;2023-07-20T04:23:45;94707.91;;;25.42;58.93
5380;BME280;2713;42.680;23.310;2023-07-20T04:26:14;94707.34;;;25.16;59.38
5380;BME280;2713;42.680;23.310;2023-07-20T04:28:41;94698.16;;;25.32;59.24
5380;BME280;2713;42.680;23.310;2023-07-20T04:31:11;94699.84;;;25.57;57.66
5380;BME280;2713;42.680;23.310;2023-07-20T04:33:39;94702.75;;;25.55;57.74
5380;BME280;2713;42.680;23.310;2023-07-20T04:36:06;94698.25;;;25.22;58.70
5380;BME280;2713;42.680;23.310;2023-07-20T04:38:35;94698.56;;;24.77;59.39
5380;BME280;2713;42.680;23.310;2023-07-20T04:41:17;94691.69;;;24.76;60.17
5380;BME280;2713;42.680;23.310;2023-07-20T04:43:46;94686.56;;;24.89;59.02
5380;BME280;2713;42.680;23.310;2023-07-20T04:46:18;94694.56;;;25.18;58.76
5380;BME280;2713;42.680;23.310;2023-07-20T04:48:46;94696.47;;;25.41;58.17
5380;BME280;2713;42.680;23.310;2023-07-20T04:51:14;94690.56;;;25.49;57.52
5380;BME280;2713;42.680;23.310;2023-07-20T04:53:43;94698.44;;;25.64;57.22
5380;BME280;2713;42.680;23.310;2023-07-20T04:56:09;94697.03;;;25.96;56.41
5380;BME280;2713;42.680;23.310;2023-07-20T04:58:38;94677.31;;;26.20;55.17
5380;BME280;2713;42.680;23.310;2023-07-20T05:01:05;94692.31;;;26.72;53.80
5380;BME280;2713;42.680;23.310;2023-07-20T05:03:33;94694.41;;;27.13;52.98
5380;BME280;2713;42.680;23.310;2023-07-20T05:06:00;94686.25;;;27.55;51.58
5380;BME280;2713;42.680;23.310;2023-07-20T05:08:27;94678.44;;;27.59;51.98
5380;BME280;2713;42.680;23.310;2023-07-20T05:10:54;94687.47;;;27.77;51.89
5380;BME280;2713;42.680;23.310;2023-07-20T05:13:21;94693.63;;;27.91;51.36
5380;BME280;2713;42.680;23.310;2023-07-20T05:15:52;94695.16;;;27.64;51.66
5380;BME280;2713;42.680;23.310;2023-07-20T05:18:20;94697.69;;;28.15;50.75
5380;BME280;2713;42.680;23.310;2023-07-20T05:20:49;94702.03;;;28.52;49.94
5380;BME280;2713;42.680;23.310;2023-07-20T05:23:18;94698.75;;;28.69;49.40
5380;BME280;2713;42.680;23.310;2023-07-20T05:25:45;94691.97;;;28.85;49.34
5380;BME280;2713;42.680;23.310;2023-07-20T05:28:12;94689.91;;;29.04;47.28
5380;BME280;2713;42.680;23.310;2023-07-20T05:30:39;94703.09;;;29.01;47.52
5380;BME280;2713;42.680;23.310;2023-07-20T05:33:08;94714.63;;;29.24;46.89
5380;BME280;2713;42.680;23.310;2023-07-20T05:35:36;94705.47;;;29.38;46.65
5380;BME280;2713;42.680;23.310;2023-07-20T05:38:03;94703.63;;;29.47;46.39
5380;BME280;2713;42.680;23.310;2023-07-20T05:40:32;94702.66;;;29.74;46.11
5380;BME280;2713;42.680;23.310;2023-07-20T05:42:59;94712.94;;;29.81;45.70
5380;BME280;2713;42.680;23.310;2023-07-20T05:45:26;94716.41;;;30.12;45.45
5380;BME280;2713;42.680;23.310;2023-07-20T05:47:52;94718.13;;;29.77;45.69
5380;BME280;2713;42.680;23.310;2023-07-20T05:50:20;94719.66;;;29.92;45.46
5380;BME280;2713;42.680;23.310;2023-07-20T05:52:47;94721.38;;;30.27;44.88
5380;BME280;2713;42.680;23.310;2023-07-20T05:55:14;94714.66;;;30.47;44.19
5380;BME280;2713;42.680;23.310;2023-07-20T05:57:41;94718.19;;;30.73;43.92
5380;BME280;2713;42.680;23.310;2023-07-20T06:00:09;94709.81;;;30.57;43.84
5380;BME280;2713;42.680;23.310;2023-07-20T06:02:37;94708.03;;;30.53;43.66
5380;BME280;2713;42.680;23.310;2023-07-20T06:05:05;94711.22;;;30.72;42.45
5380;BME280;2713;42.680;23.310;2023-07-20T06:07:36;94708.69;;;30.76;42.26
5380;BME280;2713;42.680;23.310;2023-07-20T06:10:04;94705.56;;;30.74;42.69
5380;BME280;2713;42.680;23.310;2023-07-20T06:12:31;94699.09;;;30.92;42.34
5380;BME280;2713;42.680;23.310;2023-07-20T06:15:01;94700.69;;;31.10;40.58
5380;BME280;2713;42.680;23.310;2023-07-20T06:17:28;94703.56;;;31.05;41.04
5380;BME280;2713;42.680;23.310;2023-07-20T06:19:55;94703.34;;;30.84;42.00
5380;BME280;2713;42.680;23.310;2023-07-20T06:22:22;94689.44;;;30.56;42.13
5380;BME280;2713;42.680;23.310;2023-07-20T06:24:50;94686.50;;;31.01;42.36
5380;BME280;2713;42.680;23.310;2023-07-20T06:27:17;94685.84;;;31.04;41.52
5380;BME280;2713;42.680;23.310;2023-07-20T06:29:44;94678.56;;;31.39;41.04
5380;BME280;2713;42.680;23.310;2023-07-20T06:32:10;94679.97;;;31.53;40.08
5380;BME280;2713;42.680;23.310;2023-07-20T06:34:37;94679.34;;;31.56;40.09
5380;BME280;2713;42.680;23.310;2023-07-20T06:37:04;94678.50;;;31.73;40.74
5380;BME280;2713;42.680;23.310;2023-07-20T06:39:31;94674.94;;;31.90;40.75
5380;BME280;2713;42.680;23.310;2023-07-20T06:41:59;94666.47;;;32.17;40.38
5380;BME280;2713;42.680;23.310;2023-07-20T06:44:26;94660.97;;;31.58;41.55
5380;BME280;2713;42.680;23.310;2023-07-20T06:46:53;94673.56;;;31.75;41.31
5380;BME280;2713;42.680;23.310;2023-07-20T06:49:26;94671.81;;;31.88;40.70
5380;BME280;2713;42.680;23.310;2023-07-20T06:51:53;94669.22;;;32.08;40.65
5380;BME280;2713;42.680;23.310;2023-07-20T06:54:19;94677.84;;;32.23;40.39
5380;BME280;2713;42.680;23.310;2023-07-20T06:56:46;94684.00;;;32.52;39.28
5380;BME280;2713;42.680;23.310;2023-07-20T06:59:14;94687.59;;;31.98;39.87
5380;BME280;2713;42.680;23.310;2023-07-20T07:01:41;94688.59;;;31.85;40.03
5380;BME280;2713;42.680;23.310;2023-07-20T07:04:08;94709.50;;;32.26;40.03
5380;BME280;2713;42.680;23.310;2023-07-20T07:06:35;94704.97;;;32.67;39.16
5380;BME280;2713;42.680;23.310;2023-07-20T07:09:02;94706.97;;;31.74;41.00
5380;BME280;2713;42.680;23.310;2023-07-20T07:11:29;94713.66;;;31.25;41.73
5380;BME280;2713;42.680;23.310;2023-07-20T07:13:56;94714.06;;;30.76;43.22
5380;BME280;2713;42.680;23.310;2023-07-20T07:16:24;94725.97;;;30.35;44.67
5380;BME280;2713;42.680;23.310;2023-07-20T07:18:51;94738.94;;;29.80;45.36
5380;BME280;2713;42.680;23.310;2023-07-20T07:21:18;94749.47;;;30.38;44.63
5380;BME280;2713;42.680;23.310;2023-07-20T07:23:45;94756.88;;;30.81;42.92
5380;BME280;2713;42.680;23.310;2023-07-20T07:26:12;94752.22;;;31.29;41.95
5380;BME280;2713;42.680;23.310;2023-07-20T07:28:39;94752.47;;;31.88;41.51
5380;BME280;2713;42.680;23.310;2023-07-20T07:31:06;94757.50;;;31.98;41.96
5380;BME280;2713;42.680;23.310;2023-07-20T07:33:34;94755.75;;;32.10;41.21
5380;BME280;2713;42.680;23.310;2023-07-20T07:36:01;94733.94;;;32.41;40.84
5380;BME280;2713;42.680;23.310;2023-07-20T07:38:28;94731.53;;;32.78;40.18
5380;BME280;2713;42.680;23.310;2023-07-20T07:40:54;94730.31;;;31.82;41.20
5380;BME280;2713;42.680;23.310;2023-07-20T07:43:21;94731.41;;;31.90;41.48
5380;BME280;2713;42.680;23.310;2023-07-20T07:45:48;94739.16;;;32.46;39.86
5380;BME280;2713;42.680;23.310;2023-07-20T07:48:15;94727.44;;;32.72;40.15
5380;BME280;2713;42.680;23.310;2023-07-20T07:50:44;94708.78;;;33.17;39.42
5380;BME280;2713;42.680;23.310;2023-07-20T07:53:10;94698.22;;;33.11;39.63
5380;BME280;2713;42.680;23.310;2023-07-20T07:55:37;94690.97;;;33.24;38.90
5380;BME280;2713;42.680;23.310;2023-07-20T07:58:04;94696.06;;;32.96;39.38
5380;BME280;2713;42.680;23.310;2023-07-20T08:00:31;94704.09;;;33.26;39.03
5380;BME280;2713;42.680;23.310;2023-07-20T08:02:57;94693.66;;;33.24;38.89
5380;BME280;2713;42.680;23.310;2023-07-20T08:05:24;94713.06;;;33.18;38.95
5380;BME280;2713;42.680;23.310;2023-07-20T08:07:53;94730.25;;;32.84;40.14
5380;BME280;2713;42.680;23.310;2023-07-20T08:10:20;94745.53;;;32.92;40.00
5380;BME280;2713;42.680;23.310;2023-07-20T08:12:46;94734.50;;;32.26;40.73
5380;BME280;2713;42.680;23.310;2023-07-20T08:15:14;94748.41;;;32.57;40.74
5380;BME280;2713;42.680;23.310;2023-07-20T08:17:41;94733.84;;;32.67;40.98
5380;BME280;2713;42.680;23.310;2023-07-20T08:20:08;94742.97;;;32.37;41.72
5380;BME280;2713;42.680;23.310;2023-07-20T08:22:37;94739.25;;;32.21;42.16
5380;BME280;2713;42.680;23.310;2023-07-20T08:25:07;94749.28;;;31.86;42.73
5380;BME280;2713;42.680;23.310;2023-07-20T08:27:34;94750.00;;;32.21;42.07
5380;BME280;2713;42.680;23.310;2023-07-20T08:30:01;94751.56;;;31.66;42.12
5380;BME280;2713;42.680;23.310;2023-07-20T08:32:28;94744.91;;;31.73;41.91
5380;BME280;2713;42.680;23.310;2023-07-20T08:34:54;94744.28;;;31.58;40.82
5380;BME280;2713;42.680;23.310;2023-07-20T08:37:21;94761.03;;;31.73;40.83
5380;BME280;2713;42.680;23.310;2023-07-20T08:39:48;94752.81;;;31.35;40.15
5380;BME280;2713;42.680;23.310;2023-07-20T08:42:16;94749.34;;;31.34;40.16
5380;BME280;2713;42.680;23.310;2023-07-20T08:44:44;94760.59;;;31.19;40.51
5380;BME280;2713;42.680;23.310;2023-07-20T08:47:12;94751.88;;;31.39;39.45
5380;BME280;2713;42.680;23.310;2023-07-20T08:49:40;94762.16;;;31.20;40.13
5380;BME280;2713;42.680;23.310;2023-07-20T08:52:08;94751.41;;;31.54;40.64
5380;BME280;2713;42.680;23.310;2023-07-20T08:54:35;94757.59;;;31.63;39.57
5380;BME280;2713;42.680;23.310;2023-07-20T08:57:03;94746.78;;;31.81;38.08
5380;BME280;2713;42.680;23.310;2023-07-20T08:59:32;94746.94;;;31.76;39.03
5380;BME280;2713;42.680;23.310;2023-07-20T09:02:02;94738.88;;;31.76;37.98
5380;BME280;2713;42.680;23.310;2023-07-20T09:04:31;94728.00;;;31.63;38.19
5380;BME280;2713;42.680;23.310;2023-07-20T09:06:58;94735.59;;;32.25;37.85
5380;BME280;2713;42.680;23.310;2023-07-20T09:09:24;94730.94;;;32.43;37.41
5380;BME280;2713;42.680;23.310;2023-07-20T09:11:51;94734.50;;;31.37;39.28
5380;BME280;2713;42.680;23.310;2023-07-20T09:14:18;94728.03;;;31.29;39.33
5380;BME280;2713;42.680;23.310;2023-07-20T09:16:50;94727.38;;;31.41;39.52
5380;BME280;2713;42.680;23.310;2023-07-20T09:19:17;94713.59;;;31.77;38.58
5380;BME280;2713;42.680;23.310;2023-07-20T09:21:45;94714.16;;;32.08;38.23
5380;BME280;2713;42.680;23.310;2023-07-20T09:24:13;94716.03;;;31.99;37.77
5380;BME280;2713;42.680;23.310;2023-07-20T09:26:44;94710.31;;;32.17;36.38
5380;BME280;2713;42.680;23.310;2023-07-20T09:29:13;94701.03;;;31.98;36.85
5380;BME280;2713;42.680;23.310;2023-07-20T09:31:40;94702.56;;;31.52;37.75
5380;BME280;2713;42.680;23.310;2023-07-20T09:34:08;94706.31;;;31.68;37.25
5380;BME280;2713;42.680;23.310;2023-07-20T09:36:36;94702.13;;;31.33;37.32
5380;BME280;2713;42.680;23.310;2023-07-20T09:39:03;94708.75;;;31.36;37.20
5380;BME280;2713;42.680;23.310;2023-07-20T09:41:39;94702.56;;;31.61;36.35
5380;BME280;2713;42.680;23.310;2023-07-20T09:44:07;94703.06;;;31.29;36.54
5380;BME280;2713;42.680;23.310;2023-07-20T09:46:42;94707.19;;;31.26;37.00
5380;BME280;2713;42.680;23.310;2023-07-20T09:49:11;94710.94;;;31.59;37.19
5380;BME280;2713;42.680;23.310;2023-07-20T09:51:38;94701.28;;;31.50;36.87
5380;BME280;2713;42.680;23.310;2023-07-20T09:54:05;94691.81;;;31.99;35.72
5380;BME280;2713;42.680;23.310;2023-07-20T09:56:33;94679.63;;;32.19;35.09
5380;BME280;2713;42.680;23.310;2023-07-20T09:59:00;94665.53;;;32.13;34.73
5380;BME280;2713;42.680;23.310;2023-07-20T10:01:26;94661.41;;;31.78;34.39
5380;BME280;2713;42.680;23.310;2023-07-20T10:03:58;94675.91;;;31.30;36.06
5380;BME280;2713;42.680;23.310;2023-07-20T10:06:28;94679.84;;;31.15;36.63
5380;BME280;2713;42.680;23.310;2023-07-20T10:09:01;94666.75;;;31.05;36.30
5380;BME280;2713;42.680;23.310;2023-07-20T10:11:30;94688.50;;;30.87;36.89
5380;BME280;2713;42.680;23.310;2023-07-20T10:13:59;94689.13;;;30.84;37.48
5380;BME280;2713;42.680;23.310;2023-07-20T10:16:28;94685.50;;;30.80;38.03
5380;BME280;2713;42.680;23.310;2023-07-20T10:19:03;94688.38;;;30.92;37.55
5380;BME280;2713;42.680;23.310;2023-07-20T10:21:33;94685.53;;;30.88;37.46
5380;BME280;2713;42.680;23.310;2023-07-20T10:24:02;94699.72;;;30.72;36.98
5380;BME280;2713;42.680;23.310;2023-07-20T10:26:29;94686.59;;;30.61;37.46
5380;BME280;2713;42.680;23.310;2023-07-20T10:28:57;94682.81;;;30.54;37.78
5380;BME280;2713;42.680;23.310;2023-07-20T10:31:25;94676.19;;;30.68;37.19
5380;BME280;2713;42.680;23.310;2023-07-20T10:33:55;94661.03;;;30.73;37.04
5380;BME280;2713;42.680;23.310;2023-07-20T10:36:24;94668.44;;;30.67;37.38
5380;BME280;2713;42.680;23.310;2023-07-20T10:38:57;94678.88;;;30.68;37.40
5380;BME280;2713;42.680;23.310;2023-07-20T10:41:28;94674.91;;;30.57;37.44
5380;BME280;2713;42.680;23.310;2023-07-20T10:43:59;94668.75;;;30.65;38.22
5380;BME280;2713;42.680;23.310;2023-07-20T10:46:42;94622.66;;;30.46;38.56
5380;BME280;2713;42.680;23.310;2023-07-20T10:49:11;94584.31;;;30.46;39.50
5380;BME280;2713;42.680;23.310;2023-07-20T10:51:41;94615.25;;;30.60;42.11
5380;BME280;2713;42.680;23.310;2023-07-20T10:54:48;94652.97;;;30.73;39.54
5380;BME280;2713;42.680;23.310;2023-07-20T10:57:31;94631.81;;;30.80;37.13
5380;BME280;2713;42.680;23.310;2023-07-20T11:00:09;94611.94;;;30.98;37.47
5380;BME280;2713;42.680;23.310;2023-07-20T11:02:46;94603.06;;;31.23;37.04
5380;BME280;2713;42.680;23.310;2023-07-20T11:05:33;94609.34;;;31.27;37.61
5380;BME280;2713;42.680;23.310;2023-07-20T11:08:04;94602.50;;;31.47;37.17
5380;BME280;2713;42.680;23.310;2023-07-20T11:10:32;94594.88;;;31.66;37.09
5380;BME280;2713;42.680;23.310;2023-07-20T11:13:19;94618.06;;;31.79;37.09
5380;BME280;2713;42.680;23.310;2023-07-20T11:15:47;94599.72;;;31.81;37.32
5380;BME280;2713;42.680;23.310;2023-07-20T11:18:14;94596.25;;;31.81;38.15
5380;BME280;2713;42.680;23.310;2023-07-20T11:20:41;94596.16;;;31.98;37.25
5380;BME280;2713;42.680;23.310;2023-07-20T11:23:09;94593.13;;;31.99;37.51
5380;BME280;2713;42.680;23.310;2023-07-20T11:25:38;94587.25;;;32.06;37.28
5380;BME280;2713;42.680;23.310;2023-07-20T11:28:09;94601.63;;;32.10;37.09
5380;BME280;2713;42.680;23.310;2023-07-20T11:30:37;94581.50;;;32.16;36.97
5380;BME280;2713;42.680;23.310;2023-07-20T11:33:04;94582.00;;;32.39;36.62
5380;BME280;2713;42.680;23.310;2023-07-20T11:35:35;94580.63;;;32.33;36.92
5380;BME280;2713;42.680;23.310;2023-07-20T11:38:03;94581.66;;;32.40;37.23
5380;BME280;2713;42.680;23.310;2023-07-20T11:40:32;94566.50;;;32.36;37.27
5380;BME280;2713;42.680;23.310;2023-07-20T11:43:01;94570.56;;;32.21;37.43
5380;BME280;2713;42.680;23.310;2023-07-20T11:45:28;94539.63;;;32.06;37.89
5380;BME280;2713;42.680;23.310;2023-07-20T11:47:58;94557.81;;;32.09;38.08
5380;BME280;2713;42.680;23.310;2023-07-20T11:50:25;94555.34;;;32.25;38.70
5380;BME280;2713;42.680;23.310;2023-07-20T11:52:52;94561.97;;;32.28;37.08
5380;BME280;2713;42.680;23.310;2023-07-20T11:55:19;94558.81;;;32.26;37.00
5380;BME280;2713;42.680;23.310;2023-07-20T12:00:39;94544.31;;;32.39;37.38
5380;BME280;2713;42.680;23.310;2023-07-20T12:03:10;94547.59;;;32.24;37.71
5380;BME280;2713;42.680;23.310;2023-07-20T12:05:38;94530.72;;;32.35;37.92
5380;BME280;2713;42.680;23.310;2023-07-20T12:08:05;94537.88;;;32.31;37.32
5380;BME280;2713;42.680;23.310;2023-07-20T12:10:32;94541.28;;;32.40;37.38
5380;BME280;2713;42.680;23.310;2023-07-20T12:13:01;94531.13;;;32.46;34.87
5380;BME280;2713;42.680;23.310;2023-07-20T12:15:29;94532.56;;;32.43;35.36
5380;BME280;2713;42.680;23.310;2023-07-20T12:18:00;94526.06;;;32.44;35.64
5380;BME280;2713;42.680;23.310;2023-07-20T12:20:29;94523.78;;;32.34;35.39
5380;BME280;2713;42.680;23.310;2023-07-20T12:22:57;94530.25;;;32.33;36.12
5380;BME280;2713;42.680;23.310;2023-07-20T12:25:32;94531.78;;;32.43;35.18
5380;BME280;2713;42.680;23.310;2023-07-20T12:28:00;94524.69;;;32.38;34.86
5380;BME280;2713;42.680;23.310;2023-07-20T12:30:28;94521.66;;;32.60;34.83
5380;BME280;2713;42.680;23.310;2023-07-20T12:32:55;94521.16;;;32.67;34.56
5380;BME280;2713;42.680;23.310;2023-07-20T12:35:23;94512.84;;;32.72;34.46
5380;BME280;2713;42.680;23.310;2023-07-20T12:37:52;94513.13;;;32.91;32.39
5380;BME280;2713;42.680;23.310;2023-07-20T12:40:19;94513.03;;;33.00;31.17
5380;BME280;2713;42.680;23.310;2023-07-20T12:42:46;94506.56;;;33.01;29.77
5380;BME280;2713;42.680;23.310;2023-07-20T12:45:13;94514.75;;;33.04;29.55
5380;BME280;2713;42.680;23.310;2023-07-20T12:47:40;94509.38;;;33.04;29.74
5380;BME280;2713;42.680;23.310;2023-07-20T12:50:07;94510.50;;;33.15;30.01
5380;BME280;2713;42.680;23.310;2023-07-20T12:52:37;94516.25;;;33.26;30.05
5380;BME280;2713;42.680;23.310;2023-07-20T12:55:06;94501.16;;;33.01;30.88
5380;BME280;2713;42.680;23.310;2023-07-20T12:57:33;94495.72;;;32.89;31.70
5380;BME280;2713;42.680;23.310;2023-07-20T13:00:00;94504.75;;;33.05;31.93
5380;BME280;2713;42.680;23.310;2023-07-20T13:02:29;94500.25;;;33.09;32.00
5380;BME280;2713;42.680;23.310;2023-07-20T13:04:56;94500.19;;;33.18;32.27
5380;BME280;2713;42.680;23.310;2023-07-20T13:07:29;94491.56;;;33.24;32.25
5380;BME280;2713;42.680;23.310;2023-07-20T13:09:58;94497.41;;;33.38;31.85
5380;BME280;2713;42.680;23.310;2023-07-20T13:12:26;94500.78;;;33.35;32.23
5380;BME280;2713;42.680;23.310;2023-07-20T13:14:54;94489.91;;;33.32;32.01
5380;BME280;2713;42.680;23.310;2023-07-20T13:17:21;94483.00;;;33.10;32.79
5380;BME280;2713;42.680;23.310;2023-07-20T13:19:48;94494.63;;;33.02;32.96
5380;BME280;2713;42.680;23.310;2023-07-20T13:22:14;94489.25;;;33.02;32.94